Time;durP1;ratioP1;P1;durP2;ratioP2;P2;SDS_P1;SDS_P2;PMS_P1;PMS_P2;Temp;Humidity;BMP_temperature;BMP_pressure;BME280_temperature;BME280_humidity;BME280_pressure;Samples;Min_cycle;Max_cycle;Signal;HPM_P1;HPM_P2
2022/04/16 00:00:54;;;;;;;3.20;2.90;;;5.50;99.90;;;;;;5051081;28;20635;-49
2022/04/16 00:03:22;;;;;;;4.87;3.53;;;5.50;99.90;;;;;;5032311;28;20203;-52
2022/04/16 00:05:50;;;;;;;4.80;3.30;;;5.40;99.90;;;;;;5051175;28;20278;-46
2022/04/16 00:08:19;;;;;;;3.40;3.10;;;5.40;99.90;;;;;;5047678;28;20230;-52
2022/04/16 00:10:45;;;;;;;5.13;3.20;;;5.40;99.90;;;;;;5053286;28;20223;-47
2022/04/16 00:13:13;;;;;;;6.30;3.30;;;5.40;99.90;;;;;;5048742;28;20709;-47
2022/04/16 00:15:39;;;;;;;7.07;3.80;;;5.30;99.90;;;;;;5052628;28;20325;-52
2022/04/16 00:18:07;;;;;;;3.43;2.90;;;5.30;99.90;;;;;;5044937;28;20297;-48
2022/04/16 00:20:35;;;;;;;5.53;3.60;;;5.30;99.90;;;;;;5055861;28;20457;-46
2022/04/16 00:23:02;;;;;;;5.00;2.93;;;5.20;99.90;;;;;;5058572;28;20215;-49
2022/04/16 00:25:30;;;;;;;3.50;3.20;;;5.20;99.90;;;;;;5046508;28;20206;-49
2022/04/16 00:27:57;;;;;;;3.40;2.87;;;5.10;99.90;;;;;;5052542;28;20211;-45
2022/04/16 00:30:23;;;;;;;3.93;3.37;;;5.10;99.90;;;;;;5055917;28;20222;-50
2022/04/16 00:32:55;;;;;;;6.10;2.97;;;5.10;99.90;;;;;;5043414;28;20304;-49
2022/04/16 00:35:22;;;;;;;7.30;3.43;;;5.00;99.90;;;;;;5057421;28;20609;-47
2022/04/16 00:37:49;;;;;;;4.33;3.40;;;5.00;99.90;;;;;;5050166;28;20223;-52
2022/04/16 00:40:16;;;;;;;4.83;3.30;;;4.90;99.90;;;;;;5046132;28;20286;-50
2022/04/16 00:42:44;;;;;;;3.60;2.80;;;4.90;99.90;;;;;;5058535;28;20222;-45
2022/04/16 00:45:12;;;;;;;4.07;2.93;;;4.90;99.90;;;;;;5049595;28;20207;-46
2022/04/16 00:47:39;;;;;;;3.93;3.00;;;4.90;99.90;;;;;;5046619;28;20343;-45
2022/04/16 00:50:08;;;;;;;3.97;2.60;;;4.90;99.90;;;;;;5042951;28;20282;-47
2022/04/16 00:52:35;;;;;;;5.30;2.90;;;4.80;99.90;;;;;;5051743;28;20217;-45
2022/04/16 00:55:02;;;;;;;4.57;3.00;;;4.80;99.90;;;;;;5061270;28;20200;-45
2022/04/16 00:57:29;;;;;;;5.20;2.87;;;4.80;99.90;;;;;;5044287;28;20891;-48
2022/04/16 00:59:57;;;;;;;3.47;2.80;;;4.70;99.90;;;;;;5046062;28;20203;-46
2022/04/16 01:02:23;;;;;;;3.17;2.80;;;4.70;99.90;;;;;;5056323;28;20217;-48
2022/04/16 01:04:50;;;;;;;5.23;3.10;;;4.70;99.90;;;;;;5044713;28;20688;-48
2022/04/16 01:07:22;;;;;;;6.87;2.93;;;4.70;99.90;;;;;;5045399;28;20613;-51
2022/04/16 01:09:50;;;;;;;3.47;2.67;;;4.60;99.90;;;;;;5044266;28;20206;-51
2022/04/16 01:12:17;;;;;;;4.70;3.00;;;4.50;99.90;;;;;;5044549;28;21059;-46
2022/04/16 01:14:45;;;;;;;3.47;2.93;;;4.50;99.90;;;;;;5049812;28;20195;-50
2022/04/16 01:17:13;;;;;;;4.53;2.80;;;4.50;99.90;;;;;;5050502;28;20195;-47
2022/04/16 01:19:41;;;;;;;4.00;2.70;;;4.50;99.90;;;;;;5041556;28;20207;-52
2022/04/16 01:22:09;;;;;;;4.70;2.73;;;4.40;99.90;;;;;;5053938;28;20245;-48
2022/04/16 01:24:38;;;;;;;3.43;2.90;;;4.40;99.90;;;;;;5054746;28;20191;-50
2022/04/16 01:27:05;;;;;;;3.80;3.40;;;4.30;99.90;;;;;;5050534;28;21289;-48
2022/04/16 01:29:32;;;;;;;3.73;3.10;;;4.30;99.90;;;;;;5057994;28;20195;-49
2022/04/16 01:31:59;;;;;;;3.23;3.00;;;4.30;99.90;;;;;;5050180;28;20218;-49
2022/04/16 01:34:26;;;;;;;4.53;2.77;;;4.30;99.90;;;;;;5056382;28;20257;-49
2022/04/16 01:36:53;;;;;;;4.80;2.70;;;4.20;99.90;;;;;;5042346;28;20195;-49
2022/04/16 01:39:20;;;;;;;3.73;2.90;;;4.20;99.90;;;;;;5056508;28;20269;-48
2022/04/16 01:41:48;;;;;;;4.27;2.70;;;4.20;99.90;;;;;;5056332;28;20229;-52
2022/04/16 01:44:14;;;;;;;3.93;2.90;;;4.20;99.90;;;;;;5056259;28;20203;-48
2022/04/16 01:46:42;;;;;;;4.27;2.57;;;4.10;99.90;;;;;;5045324;28;20196;-51
2022/04/16 01:49:10;;;;;;;2.57;1.87;;;4.10;99.90;;;;;;5047667;28;20203;-48
2022/04/16 01:51:37;;;;;;;4.50;2.63;;;4.00;99.90;;;;;;5057887;28;20231;-51
2022/04/16 01:54:04;;;;;;;2.43;2.23;;;4.00;99.90;;;;;;5046875;28;20249;-46
2022/04/16 01:56:31;;;;;;;3.00;2.67;;;4.00;99.90;;;;;;5057451;28;20604;-49
2022/04/16 01:58:59;;;;;;;2.93;1.93;;;4.00;99.90;;;;;;5045876;28;20415;-53
2022/04/16 02:01:26;;;;;;;3.57;2.30;;;3.90;99.90;;;;;;5058102;28;20219;-49
2022/04/16 02:03:53;;;;;;;2.57;2.37;;;3.90;99.90;;;;;;5039214;28;20306;-50
2022/04/16 02:06:20;;;;;;;5.37;2.27;;;3.80;99.90;;;;;;5059254;28;20211;-48
2022/04/16 02:08:48;;;;;;;5.00;2.43;;;3.80;99.90;;;;;;5041313;28;20195;-51
2022/04/16 02:11:15;;;;;;;4.47;2.40;;;3.70;99.90;;;;;;5057420;28;20685;-51
2022/04/16 02:13:42;;;;;;;3.00;2.47;;;3.70;99.90;;;;;;5042382;28;20199;-50
2022/04/16 02:16:10;;;;;;;3.40;2.10;;;3.60;99.90;;;;;;5057975;28;20285;-47
2022/04/16 02:18:38;;;;;;;2.90;2.10;;;3.60;99.90;;;;;;5044368;28;20256;-50
2022/04/16 02:21:05;;;;;;;3.80;2.13;;;3.60;99.90;;;;;;5046493;28;20218;-47
2022/04/16 02:23:32;;;;;;;2.67;2.00;;;3.60;99.90;;;;;;5051543;28;20567;-48
2022/04/16 02:25:59;;;;;;;2.40;2.13;;;3.50;99.90;;;;;;5044835;28;20798;-51
2022/04/16 02:28:26;;;;;;;5.03;1.90;;;3.50;99.90;;;;;;5051353;28;20195;-49
2022/04/16 02:30:53;;;;;;;4.67;2.00;;;3.50;99.90;;;;;;5039504;28;20223;-47
2022/04/16 02:33:21;;;;;;;2.53;1.93;;;3.50;99.90;;;;;;5040958;28;20214;-50
2022/04/16 02:35:48;;;;;;;2.37;2.17;;;3.50;99.90;;;;;;5052560;28;20625;-53
2022/04/16 02:38:15;;;;;;;2.53;1.63;;;3.40;99.90;;;;;;5049210;28;20211;-49
2022/04/16 02:40:42;;;;;;;1.80;1.70;;;3.40;99.90;;;;;;5038083;28;20673;-49
2022/04/16 02:43:08;;;;;;;3.07;2.77;;;3.30;99.90;;;;;;5049353;28;20203;-52
2022/04/16 02:48:22;;;;;;;2.23;2.00;;;3.30;99.90;;;;;;5050279;28;20244;-50
2022/04/16 02:50:50;;;;;;;5.13;2.03;;;3.30;99.90;;;;;;5055029;28;20250;-48
2022/04/16 02:53:16;;;;;;;2.93;1.90;;;3.20;99.90;;;;;;5052993;28;20205;-49
2022/04/16 02:55:46;;;;;;;3.73;1.60;;;3.20;99.90;;;;;;5041889;28;20256;-52
2022/04/16 02:58:13;;;;;;;1.93;1.77;;;3.20;99.90;;;;;;5056678;28;20293;-46
2022/04/16 03:00:42;;;;;;;2.80;1.40;;;3.20;99.90;;;;;;5050828;28;20194;-48
2022/04/16 03:03:09;;;;;;;2.33;1.57;;;3.20;99.90;;;;;;5050280;28;20272;-50
2022/04/16 03:05:37;;;;;;;3.30;2.30;;;3.20;99.90;;;;;;5053092;28;20742;-52
2022/04/16 03:08:07;;;;;;;2.03;1.50;;;3.10;99.90;;;;;;5051228;28;20901;-51
2022/04/16 03:10:34;;;;;;;2.87;1.97;;;3.10;99.90;;;;;;5042233;28;20603;-47
2022/04/16 03:13:02;;;;;;;3.00;1.67;;;3.10;99.90;;;;;;5037256;28;20206;-45
2022/04/16 03:18:13;;;;;;;4.00;1.60;;;3.10;99.90;;;;;;5068382;28;20237;-52
2022/04/16 03:20:42;;;;;;;1.50;1.40;;;3.00;99.90;;;;;;5053856;28;20205;-49
2022/04/16 03:23:10;;;;;;;2.53;1.60;;;3.00;99.90;;;;;;5053479;28;20267;-50
2022/04/16 03:25:40;;;;;;;2.17;1.43;;;3.00;99.90;;;;;;5055630;28;20912;-52
2022/04/16 03:28:07;;;;;;;2.20;1.47;;;3.00;99.90;;;;;;5038768;28;20209;-47
2022/04/16 03:30:34;;;;;;;1.97;1.77;;;3.00;99.90;;;;;;5056097;28;20803;-52
2022/04/16 03:33:00;;;;;;;2.03;1.73;;;2.90;99.90;;;;;;5050560;28;20265;-49
2022/04/16 03:35:27;;;;;;;2.17;1.63;;;2.80;99.90;;;;;;5042101;28;20556;-53
2022/04/16 03:37:56;;;;;;;4.10;1.73;;;2.80;99.90;;;;;;5057702;28;20190;-51
2022/04/16 03:40:26;;;;;;;2.17;1.77;;;2.80;99.90;;;;;;5050523;28;20222;-51
2022/04/16 03:42:55;;;;;;;3.93;1.50;;;2.70;99.90;;;;;;5047833;28;20201;-51
2022/04/16 03:45:23;;;;;;;5.63;4.40;;;2.70;99.90;;;;;;5042487;28;20798;-50
2022/04/16 03:47:51;;;;;;;5.47;3.40;;;2.70;99.90;;;;;;5053813;28;20217;-48
2022/04/16 03:50:19;;;;;;;3.13;1.83;;;2.60;99.90;;;;;;5053475;28;20252;-47
2022/04/16 03:52:47;;;;;;;2.33;1.80;;;2.60;99.90;;;;;;5050098;28;20217;-51
2022/04/16 04:00:47;;;;;;;4.07;1.77;;;2.50;99.90;;;;;;5053377;28;20315;-49
2022/04/16 04:03:15;;;;;;;2.30;1.50;;;2.50;99.90;;;;;;5059168;28;20199;-49
2022/04/16 04:05:42;;;;;;;2.77;1.53;;;2.50;99.90;;;;;;5051589;28;20202;-50
2022/04/16 04:08:10;;;;;;;1.87;1.77;;;2.50;99.90;;;;;;5057725;28;20202;-47
2022/04/16 04:10:39;;;;;;;2.87;1.63;;;2.50;99.90;;;;;;5051592;28;20206;-48
2022/04/16 04:13:06;;;;;;;2.37;1.73;;;2.50;99.90;;;;;;5054314;28;20254;-49
2022/04/16 04:15:33;;;;;;;2.93;1.70;;;2.50;99.90;;;;;;5037169;28;20759;-51
2022/04/16 04:18:01;;;;;;;4.10;1.57;;;2.50;99.90;;;;;;5054480;28;20195;-49
2022/04/16 04:20:29;;;;;;;3.03;1.93;;;2.50;99.90;;;;;;5050063;28;20229;-51
2022/04/16 04:22:56;;;;;;;3.23;1.63;;;2.40;99.90;;;;;;5050688;28;20208;-49
2022/04/16 04:25:23;;;;;;;2.47;1.43;;;2.40;99.90;;;;;;5056174;28;20207;-46
2022/04/16 04:27:52;;;;;;;3.40;2.30;;;2.30;99.90;;;;;;5045289;28;20747;-46
2022/04/16 04:30:20;;;;;;;2.73;2.20;;;2.30;99.90;;;;;;5045239;28;20280;-48
2022/04/16 04:32:46;;;;;;;7.37;1.90;;;2.30;99.90;;;;;;5051134;28;20221;-53
2022/04/16 04:35:13;;;;;;;3.07;1.60;;;2.20;99.90;;;;;;5059543;28;20202;-47
2022/04/16 04:37:40;;;;;;;3.83;1.83;;;2.30;99.90;;;;;;5052164;28;20213;-48
2022/04/16 04:40:08;;;;;;;6.90;1.63;;;2.30;99.90;;;;;;5057472;28;20230;-46
2022/04/16 04:42:37;;;;;;;3.13;1.70;;;2.30;99.90;;;;;;5056467;28;20241;-50
2022/04/16 04:45:09;;;;;;;2.47;1.80;;;2.30;99.90;;;;;;5054228;28;20195;-52
2022/04/16 04:47:35;;;;;;;2.63;1.77;;;2.30;99.90;;;;;;5044498;28;20202;-46
2022/04/16 04:50:03;;;;;;;2.83;1.67;;;2.30;99.90;;;;;;5055356;28;20285;-51
2022/04/16 04:52:30;;;;;;;2.13;1.80;;;2.30;99.90;;;;;;5059871;28;20237;-48
2022/04/16 04:54:58;;;;;;;2.47;1.90;;;2.30;99.90;;;;;;5050031;28;20203;-54
2022/04/16 04:57:26;;;;;;;2.37;2.07;;;2.30;99.90;;;;;;5060974;28;20624;-46
2022/04/16 04:59:53;;;;;;;2.13;1.93;;;2.30;99.90;;;;;;5061432;28;20218;-50
2022/04/16 05:02:21;;;;;;;2.53;1.93;;;2.30;99.90;;;;;;5053651;28;20218;-50
2022/04/16 05:04:48;;;;;;;4.63;2.23;;;2.30;99.90;;;;;;5048157;28;20203;-52
2022/04/16 05:07:15;;;;;;;4.53;2.37;;;2.40;99.90;;;;;;5046377;28;20211;-48
2022/04/16 05:09:42;;;;;;;3.00;1.93;;;2.40;99.90;;;;;;5053637;28;20789;-50
2022/04/16 05:12:09;;;;;;;2.93;1.63;;;2.50;99.90;;;;;;5054455;28;20226;-47
2022/04/16 05:14:36;;;;;;;2.47;1.80;;;2.50;99.90;;;;;;5056387;28;20281;-49
2022/04/16 05:17:03;;;;;;;3.40;2.10;;;2.50;99.90;;;;;;5042945;28;20210;-52
2022/04/16 05:19:31;;;;;;;3.40;2.33;;;2.50;99.90;;;;;;5055540;28;20215;-50
2022/04/16 05:21:58;;;;;;;3.10;2.13;;;2.60;99.90;;;;;;5045296;28;20264;-51
2022/04/16 05:24:25;;;;;;;4.47;2.33;;;2.60;99.90;;;;;;5065310;28;20203;-49
2022/04/16 05:26:52;;;;;;;2.93;1.90;;;2.60;99.90;;;;;;5048574;28;20292;-50
2022/04/16 05:29:19;;;;;;;3.10;1.97;;;2.70;99.90;;;;;;5059961;28;20230;-48
2022/04/16 05:31:45;;;;;;;2.37;2.10;;;2.70;99.90;;;;;;5042623;28;20283;-49
2022/04/16 05:34:22;;;;;;;4.30;2.50;;;2.80;99.90;;;;;;5048788;28;20289;-50
2022/04/16 05:36:51;;;;;;;5.03;2.57;;;2.80;99.90;;;;;;5047063;28;20186;-49
2022/04/16 05:39:19;;;;;;;4.70;2.40;;;2.90;99.90;;;;;;5046165;28;20294;-49
2022/04/16 05:41:45;;;;;;;2.83;2.63;;;2.90;99.90;;;;;;5043608;28;20245;-49
2022/04/16 05:44:12;;;;;;;3.27;2.23;;;3.00;99.90;;;;;;5053340;28;20232;-53
2022/04/16 05:46:39;;;;;;;2.30;2.03;;;3.00;99.90;;;;;;5057564;28;20256;-50
2022/04/16 05:49:06;;;;;;;3.43;2.10;;;3.10;99.90;;;;;;5036204;28;20203;-48
2022/04/16 05:51:33;;;;;;;3.30;2.43;;;3.20;99.90;;;;;;5055854;28;20702;-51
2022/04/16 05:54:03;;;;;;;2.80;2.60;;;3.20;99.90;;;;;;5059332;28;20198;-46
2022/04/16 05:56:31;;;;;;;3.83;2.30;;;3.30;99.90;;;;;;5054147;28;20275;-52
2022/04/16 05:58:58;;;;;;;7.43;2.70;;;3.40;99.90;;;;;;5048136;28;20712;-51
2022/04/16 06:01:25;;;;;;;2.60;2.10;;;3.50;99.90;;;;;;5057217;28;20218;-50
2022/04/16 06:03:51;;;;;;;3.80;2.40;;;3.50;99.90;;;;;;5043208;28;20296;-50
2022/04/16 06:06:18;;;;;;;4.30;2.30;;;3.70;99.90;;;;;;5054406;28;20196;-51
2022/04/16 06:08:45;;;;;;;3.77;2.13;;;3.80;99.90;;;;;;5047999;28;20198;-49
2022/04/16 06:11:17;;;;;;;2.80;1.60;;;3.90;99.90;;;;;;5058509;28;20584;-50
2022/04/16 06:13:44;;;;;;;4.07;2.03;;;4.00;99.90;;;;;;5049410;28;20278;-47
2022/04/16 06:16:11;;;;;;;3.67;1.77;;;4.20;99.90;;;;;;5058831;28;20202;-50
2022/04/16 06:18:38;;;;;;;5.73;2.00;;;4.30;99.90;;;;;;5055092;28;20569;-54
2022/04/16 06:21:06;;;;;;;4.07;1.90;;;4.40;99.90;;;;;;5038017;28;20226;-50
2022/04/16 06:23:33;;;;;;;4.33;2.43;;;4.60;99.90;;;;;;5057018;28;20775;-46
2022/04/16 06:26:00;;;;;;;3.03;1.90;;;4.70;99.90;;;;;;5045272;28;20206;-54
2022/04/16 06:28:28;;;;;;;2.53;2.03;;;4.80;99.90;;;;;;5051598;28;20377;-50
2022/04/16 06:30:55;;;;;;;4.17;2.13;;;4.90;99.90;;;;;;5055204;28;20601;-51
2022/04/16 06:33:22;;;;;;;5.27;1.90;;;5.00;99.90;;;;;;5056406;28;20191;-52
2022/04/16 06:35:48;;;;;;;2.33;1.40;;;5.10;99.90;;;;;;5043910;28;20664;-52
2022/04/16 06:38:15;;;;;;;2.07;1.70;;;5.20;99.90;;;;;;5055123;28;20186;-49
2022/04/16 06:40:42;;;;;;;2.87;1.70;;;5.30;99.90;;;;;;5044119;28;20305;-49
2022/04/16 06:43:09;;;;;;;3.40;1.73;;;5.40;99.90;;;;;;5051551;28;20214;-50
2022/04/16 06:45:40;;;;;;;4.00;1.80;;;5.50;99.90;;;;;;5054132;28;20206;-50
2022/04/16 06:48:08;;;;;;;3.53;1.87;;;5.60;99.90;;;;;;5050690;28;20230;-50
2022/04/16 06:50:34;;;;;;;2.47;1.40;;;5.60;99.90;;;;;;5061956;28;20684;-51
2022/04/16 06:53:04;;;;;;;3.70;1.30;;;5.80;99.90;;;;;;5046552;28;20544;-51
2022/04/16 06:55:32;;;;;;;4.23;1.30;;;5.90;99.90;;;;;;5054394;28;20218;-52
2022/04/16 06:57:59;;;;;;;2.10;1.30;;;6.00;99.90;;;;;;5044695;28;20689;-53
2022/04/16 07:00:26;;;;;;;2.50;1.40;;;6.10;99.90;;;;;;5056129;28;20210;-52
2022/04/16 07:02:54;;;;;;;1.50;1.33;;;6.20;99.90;;;;;;5051816;28;20210;-51
2022/04/16 07:05:21;;;;;;;1.93;1.50;;;6.30;99.90;;;;;;5046178;28;20210;-50
2022/04/16 07:07:48;;;;;;;3.47;1.17;;;6.30;99.90;;;;;;5045774;28;20218;-52
2022/04/16 07:10:15;;;;;;;3.80;1.30;;;6.40;99.90;;;;;;5042758;28;20205;-49
2022/04/16 07:12:41;;;;;;;2.60;1.00;;;6.60;99.90;;;;;;5053943;28;20229;-47
2022/04/16 07:15:09;;;;;;;2.30;1.17;;;6.60;99.90;;;;;;5043628;28;20198;-50
2022/04/16 07:17:36;;;;;;;2.30;1.30;;;6.70;99.90;;;;;;5048772;28;20589;-51
2022/04/16 07:20:05;;;;;;;1.50;1.40;;;6.70;99.90;;;;;;5052342;28;20285;-52
2022/04/16 07:22:31;;;;;;;4.30;1.53;;;6.80;99.90;;;;;;5039877;28;20214;-46
2022/04/16 07:24:58;;;;;;;2.07;1.07;;;6.90;99.90;;;;;;5058964;28;20579;-50
2022/04/16 07:27:25;;;;;;;2.73;1.00;;;7.00;99.90;;;;;;5042241;28;20211;-46
2022/04/16 07:29:58;;;;;;;1.20;1.10;;;7.10;99.90;;;;;;5045422;28;20588;-50
2022/04/16 07:32:24;;;;;;;0.90;0.90;;;7.20;99.90;;;;;;5045085;28;20249;-47
2022/04/16 07:34:51;;;;;;;1.07;0.97;;;7.20;99.90;;;;;;5057135;28;20213;-50
2022/04/16 07:37:19;;;;;;;2.73;0.80;;;7.30;99.90;;;;;;5045343;28;20201;-50
2022/04/16 07:39:46;;;;;;;0.60;0.60;;;7.40;99.90;;;;;;5046373;28;20221;-49
2022/04/16 07:42:13;;;;;;;0.73;0.73;;;7.50;99.90;;;;;;5048029;28;20372;-53
2022/04/16 07:44:42;;;;;;;0.90;0.70;;;7.70;99.90;;;;;;5048147;28;20210;-46
2022/04/16 07:47:09;;;;;;;2.13;0.80;;;7.70;99.90;;;;;;5050456;28;20922;-51
2022/04/16 07:49:36;;;;;;;0.80;0.73;;;7.90;99.90;;;;;;5051591;28;20578;-51
2022/04/16 07:52:03;;;;;;;1.80;0.80;;;8.00;99.90;;;;;;5051495;28;20227;-52
2022/04/16 07:54:31;;;;;;;1.03;0.63;;;8.10;99.90;;;;;;5044490;28;20276;-47
2022/04/16 07:56:58;;;;;;;3.27;0.70;;;8.10;99.90;;;;;;5045043;28;20220;-49
2022/04/16 07:59:24;;;;;;;0.80;0.70;;;8.20;99.90;;;;;;5047902;28;20257;-47
2022/04/16 08:01:52;;;;;;;0.77;0.63;;;8.30;99.90;;;;;;5051393;28;20727;-51
2022/04/16 08:04:19;;;;;;;1.33;0.90;;;8.30;99.90;;;;;;5042407;28;20214;-47
2022/04/16 08:06:46;;;;;;;3.07;0.70;;;8.50;99.90;;;;;;5056403;28;20192;-49
2022/04/16 08:09:12;;;;;;;1.10;0.80;;;8.60;99.90;;;;;;5039366;28;20812;-51
2022/04/16 08:11:41;;;;;;;1.50;0.60;;;8.70;99.90;;;;;;5059332;28;20211;-47
2022/04/16 08:14:07;;;;;;;0.80;0.60;;;8.80;99.90;;;;;;5052716;28;20257;-47
2022/04/16 08:16:35;;;;;;;1.43;0.57;;;8.90;99.90;;;;;;5046286;28;20211;-51
2022/04/16 08:19:02;;;;;;;0.70;0.50;;;9.10;99.90;;;;;;5039221;28;20196;-49
2022/04/16 08:21:30;;;;;;;0.90;0.50;;;9.20;99.90;;;;;;5055261;28;20312;-47
2022/04/16 08:24:04;;;;;;;1.20;0.77;;;9.20;99.90;;;;;;5042485;28;20583;-53
2022/04/16 08:26:31;;;;;;;1.40;0.80;;;9.30;99.90;;;;;;5051086;28;20198;-46
2022/04/16 08:28:59;;;;;;;0.73;0.70;;;9.40;99.90;;;;;;5044670;28;20287;-53
2022/04/16 08:31:26;;;;;;;0.87;0.53;;;9.40;99.90;;;;;;5047094;28;20218;-47
2022/04/16 08:33:53;;;;;;;0.60;0.50;;;9.50;99.90;;;;;;5056023;28;20730;-52
2022/04/16 08:36:19;;;;;;;2.13;0.70;;;9.60;99.90;;;;;;5056971;28;20202;-46
2022/04/16 08:38:47;;;;;;;1.53;0.60;;;9.60;99.90;;;;;;5052344;28;20210;-46
2022/04/16 08:41:14;;;;;;;0.60;0.60;;;9.60;99.90;;;;;;5042462;28;20200;-45
2022/04/16 08:43:42;;;;;;;0.57;0.50;;;9.60;99.90;;;;;;5056199;28;20202;-46
2022/04/16 08:46:11;;;;;;;2.20;0.60;;;9.60;99.90;;;;;;5040433;28;20210;-48
2022/04/16 08:48:38;;;;;;;1.47;0.40;;;9.70;99.90;;;;;;5061024;28;20206;-50
2022/04/16 08:51:05;;;;;;;1.63;0.47;;;9.70;99.90;;;;;;5055582;28;20223;-51
2022/04/16 08:53:32;;;;;;;0.50;0.50;;;9.90;99.90;;;;;;5052047;28;20211;-51
2022/04/16 08:55:59;;;;;;;2.03;0.50;;;10.00;99.90;;;;;;5035183;28;20599;-53
2022/04/16 08:58:26;;;;;;;0.60;0.50;;;10.10;99.90;;;;;;5061505;28;20252;-49
2022/04/16 09:00:53;;;;;;;1.13;0.53;;;10.20;99.90;;;;;;5054376;28;20726;-53
2022/04/16 09:03:21;;;;;;;0.43;0.40;;;10.20;99.80;;;;;;5049842;28;20190;-51
2022/04/16 09:05:53;;;;;;;0.67;0.40;;;10.20;98.60;;;;;;5052410;28;20742;-54
2022/04/16 09:08:29;;;;;;;0.73;0.73;;;10.20;98.80;;;;;;5048441;28;20192;-51
2022/04/16 09:11:06;;;;;;;0.50;0.50;;;10.20;97.40;;;;;;5039194;28;20225;-53
2022/04/16 09:13:33;;;;;;;0.77;0.33;;;10.20;98.10;;;;;;5061518;28;20194;-46
2022/04/16 09:16:10;;;;;;;1.33;0.87;;;10.20;98.20;;;;;;5045949;28;20253;-49
2022/04/16 09:18:50;;;;;;;0.60;0.60;;;10.20;97.30;;;;;;5049025;28;20221;-50
2022/04/16 09:21:17;;;;;;;1.30;0.40;;;10.30;96.00;;;;;;5055049;28;20284;-48
2022/04/16 09:23:48;;;;;;;3.33;0.47;;;10.40;97.70;;;;;;5060847;28;20616;-48
2022/04/16 09:26:26;;;;;;;0.77;0.50;;;10.40;96.70;;;;;;5044849;28;20187;-48
2022/04/16 09:28:54;;;;;;;0.70;0.60;;;10.40;96.70;;;;;;5048705;28;20207;-53
2022/04/16 09:31:27;;;;;;;0.93;0.80;;;10.50;97.00;;;;;;5046891;28;20291;-49
2022/04/16 09:33:55;;;;;;;1.93;1.03;;;10.50;96.90;;;;;;5045922;28;20210;-49
2022/04/16 09:36:26;;;;;;;0.60;0.60;;;10.60;96.50;;;;;;5046347;28;20211;-46
2022/04/16 09:39:01;;;;;;;1.77;0.80;;;10.70;95.10;;;;;;5054744;28;20584;-49
2022/04/16 09:41:34;;;;;;;0.83;0.70;;;10.70;95.40;;;;;;5050470;28;20587;-48
2022/04/16 09:44:01;;;;;;;0.80;0.63;;;10.80;95.00;;;;;;5047550;28;20209;-51
2022/04/16 09:46:30;;;;;;;1.13;0.60;;;10.80;95.10;;;;;;5056100;28;20207;-51
2022/04/16 09:49:02;;;;;;;0.80;0.40;;;10.90;94.60;;;;;;5043869;28;20217;-53
2022/04/16 09:51:33;;;;;;;1.83;0.50;;;10.90;94.00;;;;;;5049571;28;20717;-49
2022/04/16 09:54:03;;;;;;;1.20;0.90;;;10.90;92.80;;;;;;5056557;28;20591;-51
2022/04/16 09:56:33;;;;;;;0.60;0.60;;;10.90;93.50;;;;;;5053639;28;20196;-46
2022/04/16 09:59:02;;;;;;;2.37;0.90;;;10.90;92.50;;;;;;5033670;28;20231;-50
2022/04/16 10:01:29;;;;;;;0.63;0.60;;;10.80;92.80;;;;;;5050629;28;20254;-50
2022/04/16 10:03:57;;;;;;;0.63;0.63;;;10.90;92.90;;;;;;5042384;28;20202;-48
2022/04/16 10:06:25;;;;;;;2.90;1.80;;;10.90;92.90;;;;;;5050614;28;20950;-47
2022/04/16 10:08:52;;;;;;;1.83;1.00;;;10.90;92.80;;;;;;5057224;28;20248;-50
2022/04/16 10:11:32;;;;;;;2.20;1.60;;;11.00;93.70;;;;;;5049874;28;20231;-48
2022/04/16 10:14:08;;;;;;;1.10;1.10;;;11.10;92.60;;;;;;5047079;28;20213;-51
2022/04/16 10:16:40;;;;;;;0.80;0.80;;;11.10;93.20;;;;;;5063441;28;20226;-53
2022/04/16 10:19:15;;;;;;;1.53;1.17;;;11.20;92.10;;;;;;5048843;28;20206;-50
2022/04/16 10:21:44;;;;;;;1.57;1.00;;;11.20;92.60;;;;;;5051426;28;20222;-47
2022/04/16 10:24:10;;;;;;;2.23;1.60;;;11.30;91.60;;;;;;5040758;28;20207;-46
2022/04/16 10:26:39;;;;;;;1.97;1.80;;;11.20;92.00;;;;;;5044306;28;20249;-51
2022/04/16 10:29:06;;;;;;;2.93;1.30;;;11.20;92.00;;;;;;5031726;28;20195;-50
2022/04/16 10:31:36;;;;;;;3.33;1.30;;;11.20;92.40;;;;;;5056551;28;20584;-48
2022/04/16 10:34:09;;;;;;;1.17;1.07;;;11.30;92.80;;;;;;5048079;28;20226;-48
2022/04/16 10:36:38;;;;;;;1.97;1.20;;;11.40;91.30;;;;;;5054510;28;20190;-49
2022/04/16 10:39:16;;;;;;;1.43;1.13;;;11.50;91.30;;;;;;5043691;28;20209;-52
2022/04/16 10:41:54;;;;;;;0.80;0.80;;;11.50;89.70;;;;;;5050878;28;20268;-49
2022/04/16 10:44:20;;;;;;;1.27;0.87;;;11.40;89.70;;;;;;5040640;28;24199;-50
2022/04/16 10:46:48;;;;;;;0.70;0.70;;;11.50;90.30;;;;;;5051648;28;20211;-47
2022/04/16 10:49:18;;;;;;;2.93;0.93;;;11.60;89.00;;;;;;5051651;28;20205;-52
2022/04/16 10:51:45;;;;;;;3.77;1.13;;;11.70;89.00;;;;;;5042847;28;20230;-48
2022/04/16 10:54:14;;;;;;;1.37;1.00;;;11.70;90.00;;;;;;5059507;28;20194;-53
2022/04/16 10:56:52;;;;;;;0.87;0.87;;;11.80;89.50;;;;;;5072735;28;20217;-49
2022/04/16 10:59:19;;;;;;;0.80;0.80;;;11.70;85.90;;;;;;5035898;28;20228;-46
2022/04/16 11:01:53;;;;;;;1.13;1.03;;;11.60;87.70;;;;;;5060326;28;20214;-46
2022/04/16 11:04:20;;;;;;;1.60;1.10;;;11.70;85.00;;;;;;5041893;28;20248;-49
2022/04/16 11:06:51;;;;;;;1.90;1.03;;;11.80;86.60;;;;;;5047275;28;20235;-51
2022/04/16 11:09:19;;;;;;;1.13;0.90;;;11.80;86.80;;;;;;5042701;28;20202;-50
2022/04/16 11:11:52;;;;;;;2.77;1.13;;;11.80;87.40;;;;;;5052941;28;20575;-46
2022/04/16 11:14:20;;;;;;;1.23;1.13;;;11.90;86.80;;;;;;5045100;28;20183;-50
2022/04/16 11:16:47;;;;;;;1.40;0.97;;;12.00;86.60;;;;;;5045648;28;20199;-48
2022/04/16 11:19:16;;;;;;;1.90;1.10;;;12.10;86.00;;;;;;5041869;28;20269;-46
2022/04/16 11:21:44;;;;;;;1.30;1.03;;;12.10;85.00;;;;;;5040972;28;20233;-47
2022/04/16 11:24:11;;;;;;;1.30;1.20;;;12.10;82.60;;;;;;5047732;28;20193;-47
2022/04/16 11:34:57;;;;;;;1.10;0.97;;;12.10;80.10;;;;;;5050420;28;20190;-51
2022/04/16 11:37:26;;;;;;;1.53;1.10;;;12.10;79.60;;;;;;5036619;28;20207;-48
2022/04/16 11:40:00;;;;;;;2.10;1.90;;;12.10;78.40;;;;;;5051692;28;20660;-49
2022/04/16 11:42:27;;;;;;;1.20;1.03;;;12.30;80.00;;;;;;5045867;28;20233;-52
2022/04/16 11:44:57;;;;;;;2.43;1.73;;;12.30;80.10;;;;;;5049396;28;20559;-50
2022/04/16 11:47:25;;;;;;;0.80;0.77;;;12.20;79.50;;;;;;5034061;28;20287;-45
2022/04/16 11:49:54;;;;;;;1.03;0.97;;;12.30;79.70;;;;;;5051743;28;20581;-52
2022/04/16 11:52:25;;;;;;;1.37;0.90;;;12.40;77.70;;;;;;5041881;28;20203;-50
2022/04/16 11:55:03;;;;;;;0.93;0.90;;;12.50;78.80;;;;;;5052820;28;20692;-50
2022/04/16 11:57:30;;;;;;;2.17;1.10;;;12.50;74.90;;;;;;5055987;28;20206;-50
2022/04/16 11:59:59;;;;;;;1.10;1.00;;;12.50;76.60;;;;;;5048909;28;20211;-51
2022/04/16 12:02:33;;;;;;;0.80;0.80;;;12.50;77.50;;;;;;5041384;28;20242;-53
2022/04/16 12:05:14;;;;;;;0.73;0.73;;;12.60;79.40;;;;;;5043147;28;20204;-51
2022/04/16 12:07:42;;;;;;;1.10;1.10;;;12.60;74.20;;;;;;5054267;28;20226;-48
2022/04/16 12:10:11;;;;;;;1.57;1.13;;;12.60;75.90;;;;;;5046411;28;20206;-52
2022/04/16 12:12:44;;;;;;;1.03;0.97;;;12.80;77.50;;;;;;5050646;28;20212;-48
2022/04/16 12:15:12;;;;;;;2.10;1.10;;;12.80;73.80;;;;;;5047351;28;20195;-49
2022/04/16 12:17:40;;;;;;;1.47;1.23;;;12.80;76.90;;;;;;5046789;28;20199;-51
2022/04/16 12:20:10;;;;;;;1.33;1.23;;;12.90;75.70;;;;;;5048348;28;20198;-52
2022/04/16 12:22:47;;;;;;;1.23;1.13;;;12.90;76.10;;;;;;5049646;28;20241;-47
2022/04/16 12:25:16;;;;;;;1.57;1.30;;;12.80;75.00;;;;;;5042903;28;20211;-49
2022/04/16 12:27:47;;;;;;;1.20;1.10;;;12.80;78.20;;;;;;5059533;28;20264;-51
2022/04/16 12:30:17;;;;;;;1.40;0.90;;;;;;;;;;5056946;28;20194;-50
2022/04/16 12:32:55;;;;;;;1.00;1.00;;;13.20;78.40;;;;;;5047084;28;20299;-45
2022/04/16 12:35:24;;;;;;;1.83;1.57;;;13.30;77.10;;;;;;5038507;28;20202;-48
2022/04/16 12:37:53;;;;;;;1.33;1.23;;;13.40;78.70;;;;;;5051020;28;20195;-51
2022/04/16 12:40:21;;;;;;;1.50;1.40;;;13.50;79.50;;;;;;5039009;28;20210;-45
2022/04/16 12:42:48;;;;;;;1.63;1.53;;;13.60;79.80;;;;;;5059624;28;20217;-48
2022/04/16 12:45:15;;;;;;;0.93;0.90;;;13.50;78.60;;;;;;5047732;28;20214;-45
2022/04/16 12:47:43;;;;;;;1.30;1.20;;;13.50;79.20;;;;;;5048982;28;20222;-45
2022/04/16 12:50:10;;;;;;;1.10;1.10;;;13.50;76.80;;;;;;5041246;28;20195;-47
2022/04/16 12:52:37;;;;;;;1.70;1.20;;;13.40;77.60;;;;;;5053962;28;20215;-44
2022/04/16 12:55:04;;;;;;;1.40;1.30;;;13.40;76.40;;;;;;5037875;28;20207;-52
2022/04/16 12:57:32;;;;;;;1.33;1.17;;;13.40;77.10;;;;;;5054088;28;20673;-45
2022/04/16 12:59:58;;;;;;;1.53;1.17;;;13.60;76.70;;;;;;5046334;28;20195;-50
2022/04/16 13:02:27;;;;;;;1.40;1.30;;;13.90;79.00;;;;;;5061179;28;20305;-45
2022/04/16 13:04:54;;;;;;;3.00;1.50;;;14.00;78.10;;;;;;5036063;28;20203;-50
2022/04/16 13:07:22;;;;;;;1.63;1.37;;;14.10;77.20;;;;;;5043791;28;20856;-48
2022/04/16 13:09:48;;;;;;;1.40;1.30;;;14.20;78.30;;;;;;5059021;28;20202;-49
2022/04/16 13:12:18;;;;;;;1.43;1.30;;;14.40;76.00;;;;;;5048705;28;20888;-47
2022/04/16 13:14:46;;;;;;;1.20;1.10;;;14.70;74.00;;;;;;5049417;28;20200;-47
2022/04/16 13:17:13;;;;;;;1.40;1.30;;;14.80;84.70;;;;;;5039322;28;20203;-45